Time;durP1;ratioP1;P1;durP2;ratioP2;P2;SDS_P1;SDS_P2;PMS_P1;PMS_P2;Temp;Humidity;BMP_temperature;BMP_pressure;BME280_temperature;BME280_humidity;BME280_pressure;Samples;Min_cycle;Max_cycle;Signal;HPM_P1;HPM_P2
2024/01/04 00:00:46;;;;;;;14.90;12.38;;;;;;;;;;5041854;28;20056;-56
2024/01/04 00:03:12;;;;;;;14.73;12.20;;;;;;;;;;5032745;28;20026;-57
2024/01/04 00:05:38;;;;;;;14.88;11.77;;;;;;;;;;5034170;28;20033;-53
2024/01/04 00:08:04;;;;;;;15.35;12.88;;;;;;;;;;5053167;28;20136;-50
2024/01/04 00:10:30;;;;;;;14.60;11.70;;;;;;;;;;5053473;28;20021;-52
2024/01/04 00:12:56;;;;;;;16.25;12.00;;;;;;;;;;5052607;28;20035;-52
2024/01/04 00:15:22;;;;;;;15.00;11.60;;;;;;;;;;5053953;28;20021;-54
2024/01/04 00:17:48;;;;;;;14.93;12.00;;;;;;;;;;5053405;28;20427;-55
2024/01/04 00:20:14;;;;;;;14.60;11.55;;;;;;;;;;5054410;28;20040;-53
2024/01/04 00:22:40;;;;;;;32.40;12.38;;;;;;;;;;5052893;28;20040;-54
2024/01/04 00:25:07;;;;;;;16.10;12.90;;;;;;;;;;5051952;28;20036;-54
2024/01/04 00:27:33;;;;;;;14.15;10.50;;;;;;;;;;5053782;28;20104;-56
2024/01/04 00:29:59;;;;;;;14.00;10.18;;;;;;;;;;5053527;28;20056;-56
2024/01/04 00:32:25;;;;;;;14.13;10.30;;;;;;;;;;5040125;28;20041;-54
2024/01/04 00:34:51;;;;;;;14.55;11.00;;;;;;;;;;5029134;28;20022;-53
2024/01/04 00:37:17;;;;;;;14.20;10.35;;;;;;;;;;5047453;23;20106;-45
2024/01/04 00:39:43;;;;;;;13.73;9.18;;;;;;;;;;5033123;28;20465;-49
2024/01/04 00:42:09;;;;;;;13.95;9.20;;;;;;;;;;5031309;28;20021;-52
2024/01/04 00:44:35;;;;;;;13.52;8.57;;;;;;;;;;5049605;28;20292;-48
2024/01/04 00:47:01;;;;;;;12.05;7.20;;;;;;;;;;5049383;28;20036;-49
2024/01/04 00:49:27;;;;;;;10.00;5.90;;;;;;;;;;5042844;28;20021;-52
2024/01/04 00:51:53;;;;;;;9.68;5.70;;;;;;;;;;5047965;28;20436;-53
2024/01/04 00:54:19;;;;;;;9.38;5.50;;;;;;;;;;5029668;28;20080;-51
2024/01/04 00:56:45;;;;;;;9.85;5.55;;;;;;;;;;5029583;28;20034;-47
2024/01/04 00:59:11;;;;;;;9.23;5.30;;;;;;;;;;5030881;28;20557;-49
2024/01/04 01:01:37;;;;;;;8.50;5.00;;;;;;;;;;5030471;28;20053;-52
2024/01/04 01:04:03;;;;;;;8.15;4.85;;;;;;;;;;5029215;28;20140;-47
2024/01/04 01:06:29;;;;;;;9.45;5.30;;;;;;;;;;5030462;28;20412;-47
2024/01/04 01:08:55;;;;;;;7.85;4.70;;;;;;;;;;5029253;28;20058;-50
2024/01/04 01:11:21;;;;;;;8.85;5.18;;;;;;;;;;5030379;28;20021;-45
2024/01/04 01:13:47;;;;;;;9.10;5.50;;;;;;;;;;5029086;28;20025;-51
2024/01/04 01:16:14;;;;;;;10.35;6.20;;;;;;;;;;5030767;28;20493;-49
2024/01/04 01:18:40;;;;;;;7.57;4.50;;;;;;;;;;5030434;28;20028;-48
2024/01/04 01:21:06;;;;;;;8.18;4.82;;;;;;;;;;5030182;28;20036;-45
2024/01/04 01:23:32;;;;;;;8.48;5.15;;;;;;;;;;5030462;28;20032;-47
2024/01/04 01:25:58;;;;;;;10.27;5.50;;;;;;;;;;5030225;28;20033;-48
2024/01/04 01:28:24;;;;;;;9.10;5.43;;;;;;;;;;5044105;28;20576;-46
2024/01/04 01:30:51;;;;;;;9.02;5.30;;;;;;;;;;5032683;28;20022;-50
2024/01/04 01:33:17;;;;;;;10.95;6.25;;;;;;;;;;5038949;28;20437;-48
2024/01/04 01:35:43;;;;;;;10.75;6.38;;;;;;;;;;5046549;28;20021;-48
2024/01/04 01:38:09;;;;;;;10.30;6.10;;;;;;;;;;5050255;28;20037;-48
2024/01/04 01:40:35;;;;;;;11.75;6.00;;;;;;;;;;5032480;28;20032;-48
2024/01/04 01:43:01;;;;;;;12.05;6.50;;;;;;;;;;5049912;28;20032;-50
2024/01/04 01:45:27;;;;;;;10.73;6.80;;;;;;;;;;5050532;28;20025;-49
2024/01/04 01:47:54;;;;;;;15.82;10.10;;;;;;;;;;5050253;28;20082;-50
2024/01/04 01:50:21;;;;;;;14.80;10.68;;;;;;;;;;5050520;28;20032;-49
2024/01/04 01:52:48;;;;;;;13.93;9.80;;;;;;;;;;5050350;28;20074;-46
2024/01/04 01:55:16;;;;;;;13.85;9.68;;;;;;;;;;5050221;28;20045;-47
2024/01/04 01:57:43;;;;;;;14.25;9.55;;;;;;;;;;5050314;28;20021;-50
2024/01/04 02:00:10;;;;;;;16.25;12.07;;;;;;;;;;5049783;28;20036;-49
2024/01/04 02:02:37;;;;;;;14.30;10.90;;;;;;;;;;5042806;28;20029;-48
2024/01/04 02:05:03;;;;;;;14.20;10.63;;;;;;;;;;5031204;28;20041;-47
2024/01/04 02:07:29;;;;;;;14.70;11.38;;;;;;;;;;5030290;28;20455;-45
2024/01/04 02:09:55;;;;;;;14.60;11.55;;;;;;;;;;5030049;28;20071;-49
2024/01/04 02:12:21;;;;;;;14.20;10.65;;;;;;;;;;5029675;28;20050;-50
2024/01/04 02:14:52;;;;;;;15.80;12.00;;;;;;;;;;5030148;28;20585;-51
2024/01/04 02:17:19;;;;;;;14.07;10.20;;;;;;;;;;5029577;28;20387;-49
2024/01/04 02:19:45;;;;;;;13.90;9.30;;;;;;;;;;5030057;28;20021;-46
2024/01/04 02:22:11;;;;;;;13.90;9.68;;;;;;;;;;5011839;28;20025;-50
2024/01/04 02:24:37;;;;;;;13.77;9.30;;;;;;;;;;5036772;28;20104;-53
2024/01/04 02:27:04;;;;;;;13.60;8.88;;;;;;;;;;5025837;28;20025;-47
2024/01/04 02:29:30;;;;;;;14.90;10.00;;;;;;;;;;5040211;28;20021;-49
2024/01/04 02:31:56;;;;;;;13.52;8.65;;;;;;;;;;5039552;28;20113;-46
2024/01/04 02:34:22;;;;;;;14.00;9.50;;;;;;;;;;5029590;28;20096;-46
2024/01/04 02:36:48;;;;;;;13.85;9.30;;;;;;;;;;5028099;28;20060;-48
2024/01/04 02:39:14;;;;;;;13.40;8.23;;;;;;;;;;5029640;28;20037;-49
2024/01/04 02:41:40;;;;;;;13.50;8.40;;;;;;;;;;5029375;28;20025;-48
2024/01/04 02:44:06;;;;;;;14.48;9.68;;;;;;;;;;5028289;28;20056;-47
2024/01/04 02:46:32;;;;;;;13.48;8.57;;;;;;;;;;5029406;28;20032;-50
2024/01/04 02:48:58;;;;;;;14.02;8.45;;;;;;;;;;5029522;28;20028;-47
2024/01/04 02:51:24;;;;;;;13.48;8.43;;;;;;;;;;5029155;28;20027;-49
2024/01/04 02:53:50;;;;;;;13.52;8.55;;;;;;;;;;5029399;28;20036;-51
2024/01/04 02:56:16;;;;;;;13.45;8.20;;;;;;;;;;5031413;28;20467;-52
2024/01/04 02:58:45;;;;;;;13.45;8.30;;;;;;;;;;5032041;28;20080;-48
2024/01/04 03:01:11;;;;;;;13.20;7.93;;;;;;;;;;5044764;28;20035;-48
2024/01/04 03:03:37;;;;;;;13.38;8.00;;;;;;;;;;5053204;28;20082;-48
2024/01/04 03:06:04;;;;;;;13.40;8.18;;;;;;;;;;5052741;28;20475;-50
2024/01/04 03:08:30;;;;;;;14.10;8.85;;;;;;;;;;5044363;28;20083;-46
2024/01/04 03:10:56;;;;;;;13.30;7.95;;;;;;;;;;5051302;28;20025;-50
2024/01/04 03:13:22;;;;;;;13.35;8.10;;;;;;;;;;5053010;28;20028;-46
2024/01/04 03:15:48;;;;;;;13.40;8.10;;;;;;;;;;5052751;28;20449;-52
2024/01/04 03:18:14;;;;;;;13.27;7.85;;;;;;;;;;5052875;28;20070;-49
2024/01/04 03:20:40;;;;;;;14.80;8.40;;;;;;;;;;5052680;28;20363;-48
2024/01/04 03:23:06;;;;;;;12.68;7.43;;;;;;;;;;5052620;28;20037;-48
2024/01/04 03:25:32;;;;;;;12.52;7.32;;;;;;;;;;5052703;28;20021;-49
2024/01/04 03:27:58;;;;;;;12.00;7.00;;;;;;;;;;5052607;28;20056;-48
2024/01/04 03:30:24;;;;;;;12.18;7.20;;;;;;;;;;5052646;28;20029;-50
2024/01/04 03:32:50;;;;;;;23.25;7.25;;;;;;;;;;5034512;28;20025;-48
2024/01/04 03:35:16;;;;;;;11.90;6.68;;;;;;;;;;5052736;28;20036;-51
2024/01/04 03:37:42;;;;;;;10.77;6.30;;;;;;;;;;5052359;28;20118;-46
2024/01/04 03:40:08;;;;;;;11.65;6.97;;;;;;;;;;5052590;28;20021;-49
2024/01/04 03:42:34;;;;;;;9.82;5.80;;;;;;;;;;5052185;28;20025;-45
2024/01/04 03:45:00;;;;;;;9.90;5.85;;;;;;;;;;5034385;28;20021;-48
2024/01/04 03:47:27;;;;;;;10.15;5.95;;;;;;;;;;5034246;28;20451;-50
2024/01/04 03:49:53;;;;;;;10.20;6.00;;;;;;;;;;5052007;28;20060;-51
2024/01/04 03:52:19;;;;;;;10.38;6.10;;;;;;;;;;5033988;28;20025;-50
2024/01/04 03:54:45;;;;;;;12.85;6.38;;;;;;;;;;5052297;28;20025;-47
2024/01/04 03:57:11;;;;;;;10.10;5.90;;;;;;;;;;5052123;28;20114;-47
2024/01/04 03:59:37;;;;;;;9.80;5.80;;;;;;;;;;5052295;28;20021;-46
2024/01/04 04:02:03;;;;;;;9.27;5.30;;;;;;;;;;5051661;28;20021;-48
2024/01/04 04:04:29;;;;;;;9.13;5.32;;;;;;;;;;5051948;28;20024;-48
2024/01/04 04:06:55;;;;;;;9.18;5.40;;;;;;;;;;5034057;28;20490;-47
2024/01/04 04:09:21;;;;;;;9.20;5.50;;;;;;;;;;5051671;28;20028;-52
2024/01/04 04:11:49;;;;;;;8.88;5.30;;;;;;;;;;5051807;28;20108;-50
2024/01/04 04:14:15;;;;;;;9.10;5.40;;;;;;;;;;5051997;28;20029;-49
2024/01/04 04:16:41;;;;;;;8.98;5.30;;;;;;;;;;5051827;28;20112;-51
2024/01/04 04:19:07;;;;;;;8.35;5.00;;;;;;;;;;5052039;28;20026;-51
2024/01/04 04:21:33;;;;;;;8.60;5.10;;;;;;;;;;5043795;28;20484;-46
2024/01/04 04:23:59;;;;;;;8.60;5.10;;;;;;;;;;5032154;28;20092;-46
2024/01/04 04:26:25;;;;;;;8.90;5.22;;;;;;;;;;5031524;28;20164;-48
2024/01/04 04:28:51;;;;;;;8.70;5.18;;;;;;;;;;5031365;28;20345;-47
2024/01/04 04:31:18;;;;;;;9.20;5.50;;;;;;;;;;5035512;28;20021;-47
2024/01/04 04:33:45;;;;;;;9.20;5.55;;;;;;;;;;5035149;28;20029;-48
2024/01/04 04:36:11;;;;;;;8.48;5.00;;;;;;;;;;5030969;28;20017;-46
2024/01/04 04:38:37;;;;;;;9.00;5.35;;;;;;;;;;5046420;28;20035;-47
2024/01/04 04:41:04;;;;;;;8.50;5.03;;;;;;;;;;5031938;28;20037;-48
2024/01/04 04:43:30;;;;;;;8.93;5.30;;;;;;;;;;5031206;28;20049;-50
2024/01/04 04:45:57;;;;;;;8.82;5.20;;;;;;;;;;5031160;28;20033;-45
2024/01/04 04:48:23;;;;;;;8.40;5.00;;;;;;;;;;5031184;28;20033;-46
2024/01/04 04:50:50;;;;;;;8.23;4.90;;;;;;;;;;5030687;28;20372;-48
2024/01/04 04:53:16;;;;;;;8.45;5.00;;;;;;;;;;5030792;28;20107;-49
2024/01/04 04:55:42;;;;;;;8.70;5.20;;;;;;;;;;5030881;28;20025;-47
2024/01/04 04:58:08;;;;;;;8.75;5.20;;;;;;;;;;5030755;28;20022;-50
2024/01/04 05:00:34;;;;;;;8.70;5.10;;;;;;;;;;5030780;28;20033;-47
2024/01/04 05:03:00;;;;;;;8.90;5.20;;;;;;;;;;5030540;28;20032;-52
2024/01/04 05:05:26;;;;;;;9.43;5.50;;;;;;;;;;5030649;28;20033;-51
2024/01/04 05:07:52;;;;;;;9.88;5.80;;;;;;;;;;5030821;28;20025;-51
2024/01/04 05:10:18;;;;;;;9.77;5.75;;;;;;;;;;5035733;28;20017;-48
2024/01/04 05:12:44;;;;;;;8.55;5.10;;;;;;;;;;5042374;28;20375;-48
2024/01/04 05:15:10;;;;;;;8.90;5.30;;;;;;;;;;5050906;28;20091;-50
2024/01/04 05:17:36;;;;;;;9.20;5.40;;;;;;;;;;5050186;28;20024;-45
2024/01/04 05:20:04;;;;;;;9.07;5.30;;;;;;;;;;5033373;28;20531;-46
2024/01/04 05:22:30;;;;;;;9.00;5.30;;;;;;;;;;5050728;28;20029;-46
2024/01/04 05:24:56;;;;;;;10.02;5.78;;;;;;;;;;5051247;28;20032;-46
2024/01/04 05:27:22;;;;;;;8.95;5.28;;;;;;;;;;5051986;28;20031;-46
2024/01/04 05:29:48;;;;;;;11.20;5.55;;;;;;;;;;5050805;28;20060;-51
2024/01/04 05:32:14;;;;;;;9.90;5.70;;;;;;;;;;5032176;28;20482;-45
2024/01/04 05:34:42;;;;;;;9.65;5.60;;;;;;;;;;5050423;28;20028;-49
2024/01/04 05:37:08;;;;;;;9.80;5.80;;;;;;;;;;5050064;28;20041;-46
2024/01/04 05:39:34;;;;;;;9.60;5.70;;;;;;;;;;5050094;28;20055;-49
2024/01/04 05:42:00;;;;;;;9.43;5.57;;;;;;;;;;5050016;28;20025;-50
2024/01/04 05:44:26;;;;;;;8.90;5.28;;;;;;;;;;5050149;28;20021;-47
2024/01/04 05:46:52;;;;;;;9.05;5.40;;;;;;;;;;5050212;28;20442;-48
2024/01/04 05:49:18;;;;;;;8.88;5.28;;;;;;;;;;5044822;28;20028;-49
2024/01/04 05:51:44;;;;;;;9.50;5.60;;;;;;;;;;5030371;28;20025;-48
2024/01/04 05:54:10;;;;;;;9.30;5.50;;;;;;;;;;5029887;28;20513;-45
2024/01/04 05:56:36;;;;;;;10.02;5.90;;;;;;;;;;5029892;28;20033;-51
2024/01/04 05:59:02;;;;;;;9.35;5.53;;;;;;;;;;5030045;28;20055;-47
2024/01/04 06:01:28;;;;;;;9.20;5.40;;;;;;;;;;5029738;28;20104;-48
2024/01/04 06:03:55;;;;;;;8.95;5.30;;;;;;;;;;5029681;28;20036;-48
2024/01/04 06:06:21;;;;;;;8.90;5.30;;;;;;;;;;5030158;28;20092;-47
2024/01/04 06:08:47;;;;;;;9.25;5.50;;;;;;;;;;5030146;28;20037;-48
2024/01/04 06:11:13;;;;;;;9.07;5.40;;;;;;;;;;5029534;28;20125;-46
2024/01/04 06:13:39;;;;;;;9.20;5.47;;;;;;;;;;5029749;28;20034;-50
2024/01/04 06:16:06;;;;;;;9.52;5.72;;;;;;;;;;5029635;28;20541;-49
2024/01/04 06:18:31;;;;;;;8.80;5.25;;;;;;;;;;5029847;28;20036;-51
2024/01/04 06:20:57;;;;;;;8.80;5.20;;;;;;;;;;5029121;28;20025;-52
2024/01/04 06:23:23;;;;;;;8.65;5.07;;;;;;;;;;5029714;28;20021;-48
2024/01/04 06:25:49;;;;;;;8.85;5.25;;;;;;;;;;5029555;28;20025;-47
2024/01/04 06:28:15;;;;;;;8.48;5.00;;;;;;;;;;5029534;28;20395;-49
2024/01/04 06:30:41;;;;;;;8.10;4.80;;;;;;;;;;5032273;28;20646;-49
2024/01/04 06:33:07;;;;;;;9.43;5.75;;;;;;;;;;5032246;28;20083;-49
2024/01/04 06:35:33;;;;;;;8.40;5.00;;;;;;;;;;5032206;28;20403;-46
2024/01/04 06:37:59;;;;;;;8.57;5.07;;;;;;;;;;5059635;23;20099;-56
2024/01/04 06:40:25;;;;;;;8.50;5.10;;;;;;;;;;5058333;28;20030;-55
2024/01/04 06:42:55;;;;;;;8.48;5.00;;;;;;;;;;5052578;28;20364;-56
2024/01/04 06:45:25;;;;;;;8.25;4.90;;;;;;;;;;5054918;28;20039;-57
2024/01/04 06:47:51;;;;;;;11.30;6.65;;;;;;;;;;5041916;28;20025;-60
2024/01/04 06:50:17;;;;;;;8.10;4.80;;;;;;;;;;5023108;28;20049;-56
2024/01/04 06:52:43;;;;;;;8.23;4.90;;;;;;;;;;5031211;28;20041;-56
2024/01/04 06:55:10;;;;;;;8.30;4.90;;;;;;;;;;5042866;28;20021;-58
2024/01/04 06:57:36;;;;;;;9.45;6.38;;;;;;;;;;5049784;28;20048;-58
2024/01/04 07:00:02;;;;;;;8.30;4.90;;;;;;;;;;5054890;28;20020;-57
2024/01/04 07:02:28;;;;;;;8.70;5.15;;;;;;;;;;5054987;28;20025;-56
2024/01/04 07:04:54;;;;;;;8.77;5.20;;;;;;;;;;5054882;28;20036;-56
2024/01/04 07:07:20;;;;;;;8.63;5.13;;;;;;;;;;5055249;28;20044;-57
2024/01/04 07:09:46;;;;;;;9.05;5.30;;;;;;;;;;5054955;28;20029;-56
2024/01/04 07:12:12;;;;;;;8.70;5.18;;;;;;;;;;5054380;28;20467;-57
2024/01/04 07:14:39;;;;;;;8.57;5.30;;;;;;;;;;5054800;28;20100;-58
2024/01/04 07:17:07;;;;;;;8.43;4.90;;;;;;;;;;5054871;28;20075;-58
2024/01/04 07:19:33;;;;;;;9.40;6.00;;;;;;;;;;5055017;28;20071;-56
2024/01/04 07:21:59;;;;;;;8.75;5.20;;;;;;;;;;5054442;28;20394;-58
2024/01/04 07:24:25;;;;;;;12.40;7.20;;;;;;;;;;5054693;28;20065;-59
2024/01/04 07:26:51;;;;;;;13.18;7.75;;;;;;;;;;5036971;28;20040;-58
2024/01/04 07:29:17;;;;;;;13.50;8.40;;;;;;;;;;5040996;28;20068;-60
2024/01/04 07:31:43;;;;;;;14.10;10.27;;;;;;;;;;5023365;28;20029;-56
2024/01/04 07:34:09;;;;;;;14.10;10.05;;;;;;;;;;5053907;28;20025;-54
2024/01/04 07:36:35;;;;;;;14.10;10.10;;;;;;;;;;5047633;28;20034;-55
2024/01/04 07:39:01;;;;;;;14.05;10.00;;;;;;;;;;5033780;28;20482;-54
2024/01/04 07:41:27;;;;;;;13.90;9.60;;;;;;;;;;5034335;28;20116;-59
2024/01/04 07:43:53;;;;;;;13.77;9.35;;;;;;;;;;5034021;28;20026;-59
2024/01/04 07:46:19;;;;;;;13.75;9.30;;;;;;;;;;5050693;28;20025;-57
2024/01/04 07:48:45;;;;;;;13.77;9.27;;;;;;;;;;5054061;28;20029;-58
2024/01/04 07:51:11;;;;;;;13.52;8.60;;;;;;;;;;5053967;28;20041;-58
2024/01/04 07:53:37;;;;;;;13.57;8.75;;;;;;;;;;5054251;28;20085;-58
2024/01/04 07:56:03;;;;;;;13.48;8.43;;;;;;;;;;5054346;28;20111;-60
2024/01/04 07:58:30;;;;;;;13.57;8.80;;;;;;;;;;5053065;28;20033;-57
2024/01/04 08:00:56;;;;;;;13.70;8.75;;;;;;;;;;5036249;28;20036;-57
2024/01/04 08:03:22;;;;;;;13.45;8.40;;;;;;;;;;5038174;28;20360;-57
2024/01/04 08:05:48;;;;;;;13.60;8.07;;;;;;;;;;5033464;28;20021;-57
2024/01/04 08:08:14;;;;;;;13.38;8.00;;;;;;;;;;5016088;28;20037;-59
2024/01/04 08:10:40;;;;;;;13.48;8.43;;;;;;;;;;5012607;28;20033;-54
2024/01/04 08:13:06;;;;;;;13.43;8.20;;;;;;;;;;5032303;28;20037;-58
2024/01/04 08:15:33;;;;;;;12.95;7.60;;;;;;;;;;5033764;28;20399;-58
2024/01/04 08:18:00;;;;;;;19.58;9.75;;;;;;;;;;5032985;28;20018;-56
2024/01/04 08:20:26;;;;;;;13.07;7.78;;;;;;;;;;5033114;28;20070;-57
2024/01/04 08:22:52;;;;;;;13.25;7.88;;;;;;;;;;5033236;28;20072;-55
2024/01/04 08:25:18;;;;;;;13.45;8.20;;;;;;;;;;5032804;28;20145;-57
2024/01/04 08:27:44;;;;;;;13.45;8.30;;;;;;;;;;5012397;28;20025;-59
2024/01/04 08:30:11;;;;;;;13.43;8.20;;;;;;;;;;5032955;28;20493;-55
2024/01/04 08:32:37;;;;;;;13.48;8.32;;;;;;;;;;5011957;28;20064;-55
2024/01/04 08:35:03;;;;;;;13.48;8.38;;;;;;;;;;5031418;28;20026;-58
2024/01/04 08:37:29;;;;;;;13.50;8.40;;;;;;;;;;5032132;28;20040;-55
2024/01/04 08:39:55;;;;;;;13.60;8.73;;;;;;;;;;5034540;28;20100;-56
2024/01/04 08:42:21;;;;;;;13.35;8.20;;;;;;;;;;5027261;28;20024;-54
2024/01/04 08:44:47;;;;;;;13.40;8.05;;;;;;;;;;5008815;28;20496;-56
2024/01/04 08:47:13;;;;;;;13.18;7.70;;;;;;;;;;5024755;28;20594;-56
2024/01/04 08:49:39;;;;;;;13.15;7.75;;;;;;;;;;5033513;28;20034;-56
2024/01/04 08:52:06;;;;;;;13.10;7.60;;;;;;;;;;5032247;28;20030;-56
2024/01/04 08:54:32;;;;;;;12.32;7.20;;;;;;;;;;5033992;28;20032;-58
2024/01/04 08:56:58;;;;;;;12.80;7.50;;;;;;;;;;5033063;28;20116;-53
2024/01/04 08:59:24;;;;;;;12.85;7.55;;;;;;;;;;5033137;28;20490;-56
2024/01/04 09:01:50;;;;;;;13.20;7.90;;;;;;;;;;5033109;28;20040;-52
2024/01/04 09:04:16;;;;;;;12.80;7.45;;;;;;;;;;5024564;28;20244;-56
2024/01/04 09:06:42;;;;;;;12.80;7.95;;;;;;;;;;5025590;28;20018;-50
2024/01/04 09:09:08;;;;;;;13.07;7.70;;;;;;;;;;5029602;28;20494;-51
2024/01/04 09:11:39;;;;;;;14.38;8.63;;;;;;;;;;5029025;28;20491;-53
2024/01/04 09:14:11;;;;;;;13.05;7.70;;;;;;;;;;5028949;28;20449;-55
2024/01/04 09:16:37;;;;;;;13.32;7.93;;;;;;;;;;5029256;28;20099;-55
2024/01/04 09:19:03;;;;;;;20.20;8.15;;;;;;;;;;5029054;28;20109;-53
2024/01/04 09:21:30;;;;;;;13.45;8.30;;;;;;;;;;5028655;28;20449;-54
2024/01/04 09:23:56;;;;;;;13.20;7.88;;;;;;;;;;5018106;28;20112;-49
2024/01/04 09:26:22;;;;;;;13.13;7.70;;;;;;;;;;5009220;28;20109;-50
2024/01/04 09:28:48;;;;;;;13.23;7.95;;;;;;;;;;5009044;28;20022;-53
2024/01/04 09:31:15;;;;;;;13.20;7.78;;;;;;;;;;5028212;28;20472;-52
2024/01/04 09:33:41;;;;;;;13.10;7.70;;;;;;;;;;5035863;28;20530;-50
2024/01/04 09:36:07;;;;;;;13.02;7.60;;;;;;;;;;5010469;28;20034;-51
2024/01/04 09:38:34;;;;;;;12.48;7.30;;;;;;;;;;5022773;28;20159;-53
2024/01/04 09:41:14;;;;;;;12.90;7.50;;;;;;;;;;5028344;28;20022;-49
2024/01/04 09:43:41;;;;;;;12.88;7.55;;;;;;;;;;5028801;28;20026;-52
2024/01/04 09:46:07;;;;;;;16.23;8.60;;;;;;;;;;5028502;28;20105;-53
2024/01/04 09:48:36;;;;;;;12.85;7.47;;;;;;;;;;5028436;28;20082;-50
2024/01/04 09:51:02;;;;;;;12.13;7.05;;;;;;;;;;5028138;28;20021;-50
2024/01/04 09:53:28;;;;;;;12.82;7.50;;;;;;;;;;5014070;28;20037;-52
2024/01/04 09:55:54;;;;;;;11.90;7.00;;;;;;;;;;5034437;28;20017;-48
2024/01/04 09:58:20;;;;;;;11.55;6.78;;;;;;;;;;5037331;28;20030;-52
2024/01/04 10:00:46;;;;;;;11.70;6.85;;;;;;;;;;5038623;28;20527;-50
2024/01/04 10:03:12;;;;;;;11.75;6.88;;;;;;;;;;5033300;28;20095;-48
2024/01/04 10:05:39;;;;;;;11.38;6.68;;;;;;;;;;5028864;28;20029;-48
2024/01/04 10:08:26;;;;;;;11.73;6.85;;;;;;;;;;5033089;28;20038;-46
2024/01/04 10:10:54;;;;;;;11.55;6.80;;;;;;;;;;5028199;28;20144;-48
2024/01/04 10:13:21;;;;;;;11.52;6.70;;;;;;;;;;5028492;28;20448;-52
2024/01/04 10:15:48;;;;;;;11.23;6.60;;;;;;;;;;5028401;28;20049;-50
2024/01/04 10:18:14;;;;;;;11.20;6.60;;;;;;;;;;5028576;28;20513;-49
2024/01/04 10:20:40;;;;;;;10.70;6.30;;;;;;;;;;5028329;28;20075;-51
2024/01/04 10:23:07;;;;;;;10.10;6.00;;;;;;;;;;5036235;28;20083;-51
2024/01/04 10:25:33;;;;;;;10.63;6.20;;;;;;;;;;5030289;28;20041;-52
2024/01/04 10:27:59;;;;;;;10.20;6.00;;;;;;;;;;5027957;28;20075;-51
2024/01/04 10:30:26;;;;;;;9.55;5.63;;;;;;;;;;5028132;28;20369;-48
2024/01/04 10:32:52;;;;;;;10.40;6.13;;;;;;;;;;5027944;28;20569;-56
2024/01/04 10:35:26;;;;;;;9.88;5.80;;;;;;;;;;5028000;28;20495;-53
2024/01/04 10:38:02;;;;;;;10.20;6.00;;;;;;;;;;5027846;28;20058;-50
2024/01/04 10:40:28;;;;;;;10.05;5.90;;;;;;;;;;5010409;28;20021;-52
2024/01/04 10:42:54;;;;;;;9.77;5.75;;;;;;;;;;5027638;28;20025;-53
2024/01/04 10:45:29;;;;;;;11.18;7.00;;;;;;;;;;5010322;28;20049;-55
2024/01/04 10:47:56;;;;;;;9.93;5.85;;;;;;;;;;5027495;28;20274;-53
2024/01/04 10:50:25;;;;;;;9.73;5.75;;;;;;;;;;5027960;28;20084;-51
2024/01/04 10:52:55;;;;;;;10.10;5.93;;;;;;;;;;5027785;28;20427;-50
2024/01/04 10:55:22;;;;;;;10.40;6.07;;;;;;;;;;5028296;28;20049;-52
2024/01/04 10:57:50;;;;;;;10.15;5.90;;;;;;;;;;5010360;28;20025;-52
2024/01/04 11:00:17;;;;;;;10.20;6.07;;;;;;;;;;5027942;28;20100;-52
2024/01/04 11:02:43;;;;;;;10.20;6.00;;;;;;;;;;5027992;28;20030;-55
2024/01/04 11:05:12;;;;;;;10.05;5.95;;;;;;;;;;5027735;28;20125;-56
2024/01/04 11:07:38;;;;;;;;;;;;;;;;;;5028438;28;20033;-53
2024/01/04 11:10:04;;;;;;;10.23;6.05;;;;;;;;;;5027770;28;19917;-54
2024/01/04 11:12:30;;;;;;;9.93;5.90;;;;;;;;;;5027992;28;20101;-52
2024/01/04 11:14:56;;;;;;;9.45;5.57;;;;;;;;;;5027736;28;20033;-52
2024/01/04 11:17:29;;;;;;;10.13;6.03;;;;;;;;;;5013023;28;20021;-50
2024/01/04 11:20:14;;;;;;;8.95;5.30;;;;;;;;;;5031135;28;20023;-55
2024/01/04 11:22:58;;;;;;;9.38;5.75;;;;;;;;;;5031189;28;20548;-51
2024/01/04 11:25:32;;;;;;;8.70;5.10;;;;;;;;;;5031269;28;20048;-53
2024/01/04 11:27:58;;;;;;;7.82;4.65;;;;;;;;;;5031445;28;20029;-55
2024/01/04 11:30:24;;;;;;;8.30;4.97;;;;;;;;;;5031346;28;20546;-55
2024/01/04 11:32:51;;;;;;;8.60;5.10;;;;;;;;;;5030906;28;20030;-51
2024/01/04 11:35:17;;;;;;;8.40;5.00;;;;;;;;;;5030896;28;20048;-53
2024/01/04 11:37:50;;;;;;;9.95;6.60;;;;;;;;;;5031293;28;20026;-49
2024/01/04 11:40:24;;;;;;;9.50;5.72;;;;;;;;;;5031395;28;20095;-52
2024/01/04 11:42:50;;;;;;;9.18;5.43;;;;;;;;;;5030638;28;20044;-53
2024/01/04 11:45:17;;;;;;;9.30;5.40;;;;;;;;;;5030875;28;20483;-50
2024/01/04 11:47:51;;;;;;;8.55;5.10;;;;;;;;;;5030611;28;20038;-55
2024/01/04 11:50:24;;;;;;;8.60;5.20;;;;;;;;;;5030964;28;20025;-52
2024/01/04 11:52:51;;;;;;;8.95;5.30;;;;;;;;;;5012393;28;20069;-54
2024/01/04 11:55:26;;;;;;;9.38;5.53;;;;;;;;;;5030780;28;20025;-53
2024/01/04 11:58:14;;;;;;;9.30;5.50;;;;;;;;;;5030575;28;20033;-50
2024/01/04 12:00:50;;;;;;;9.98;5.88;;;;;;;;;;5030696;28;20055;-50
2024/01/04 12:03:17;;;;;;;9.60;5.65;;;;;;;;;;5030827;28;20060;-51
2024/01/04 12:05:46;;;;;;;9.27;5.45;;;;;;;;;;5030257;28;20435;-51
2024/01/04 12:08:25;;;;;;;9.02;5.40;;;;;;;;;;5029814;28;20025;-48
2024/01/04 12:10:51;;;;;;;;;;;;;;;;;;5030415;28;20534;-46
2024/01/04 12:13:17;;;;;;;9.20;5.40;;;;;;;;;;5030204;28;20294;-52
2024/01/04 12:15:43;;;;;;;9.13;5.43;;;;;;;;;;5029856;28;20423;-51
2024/01/04 12:18:09;;;;;;;9.95;5.85;;;;;;;;;;5030058;28;20025;-49
2024/01/04 12:20:35;;;;;;;9.63;5.68;;;;;;;;;;5030039;28;20391;-50
2024/01/04 12:23:04;;;;;;;8.82;5.22;;;;;;;;;;5029764;28;20047;-52
2024/01/04 12:25:30;;;;;;;;;;;;;;;;;;5030296;28;20087;-52
2024/01/04 12:27:56;;;;;;;9.20;5.40;;;;;;;;;;5028818;28;20008;-50
2024/01/04 12:30:23;;;;;;;8.43;5.00;;;;;;;;;;5029570;28;20037;-51
2024/01/04 12:32:51;;;;;;;8.85;5.20;;;;;;;;;;5029731;28;20503;-51
2024/01/04 12:35:17;;;;;;;8.85;5.20;;;;;;;;;;5012278;28;20464;-47
2024/01/04 12:37:43;;;;;;;9.05;5.38;;;;;;;;;;5030078;28;20120;-54
2024/01/04 12:40:12;;;;;;;9.40;5.57;;;;;;;;;;5030274;28;20035;-55
2024/01/04 12:42:38;;;;;;;9.30;5.43;;;;;;;;;;5030403;28;20130;-49
2024/01/04 12:45:08;;;;;;;9.27;5.50;;;;;;;;;;5030281;28;20017;-52
2024/01/04 12:47:35;;;;;;;9.60;5.70;;;;;;;;;;5029367;28;20052;-49
2024/01/04 12:50:01;;;;;;;9.27;5.50;;;;;;;;;;5029317;28;20462;-53
2024/01/04 12:52:27;;;;;;;9.13;5.38;;;;;;;;;;5029017;28;20108;-49
2024/01/04 12:54:53;;;;;;;8.88;5.28;;;;;;;;;;5029374;28;20501;-52
2024/01/04 12:57:19;;;;;;;8.50;5.00;;;;;;;;;;5030073;28;20163;-50
2024/01/04 12:59:48;;;;;;;8.73;5.13;;;;;;;;;;5031613;28;20418;-53
2024/01/04 13:02:14;;;;;;;8.63;5.13;;;;;;;;;;5034578;28;20025;-55
2024/01/04 13:04:40;;;;;;;8.45;5.00;;;;;;;;;;5012711;28;20037;-61
2024/01/04 13:07:06;;;;;;;8.05;4.80;;;;;;;;;;5009279;28;20049;-53
2024/01/04 13:09:34;;;;;;;8.10;4.80;;;;;;;;;;5043861;28;20036;-49
2024/01/04 13:12:02;;;;;;;8.38;5.00;;;;;;;;;;5048949;28;20025;-53
2024/01/04 13:14:28;;;;;;;7.88;4.70;;;;;;;;;;5049031;28;20032;-52
2024/01/04 13:16:54;;;;;;;8.15;4.82;;;;;;;;;;5048651;28;20025;-54
2024/01/04 13:19:20;;;;;;;8.43;4.97;;;;;;;;;;5048782;28;20055;-52
2024/01/04 13:21:46;;;;;;;8.38;5.00;;;;;;;;;;5049435;28;20025;-49
2024/01/04 13:24:12;;;;;;;8.70;5.10;;;;;;;;;;5048832;28;20025;-52
2024/01/04 13:26:39;;;;;;;8.80;5.20;;;;;;;;;;5048777;28;20125;-53
2024/01/04 13:29:08;;;;;;;8.98;5.30;;;;;;;;;;5034825;28;20408;-56
2024/01/04 13:31:33;;;;;;;;;;;;;;;;;;5033485;28;20033;-52
2024/01/04 13:34:00;;;;;;;7.97;4.78;;;;;;;;;;5046329;28;19915;-49
2024/01/04 13:36:26;;;;;;;8.02;4.80;;;;;;;;;;5037538;28;20029;-52
2024/01/04 13:38:52;;;;;;;8.30;4.90;;;;;;;;;;5037408;28;20021;-52
2024/01/04 13:41:18;;;;;;;7.93;4.70;;;;;;;;;;5038010;28;20104;-53
2024/01/04 13:43:45;;;;;;;8.27;4.90;;;;;;;;;;5037501;28;20040;-51
2024/01/04 13:46:11;;;;;;;8.10;4.82;;;;;;;;;;5037237;28;20041;-52
2024/01/04 13:48:37;;;;;;;8.20;4.90;;;;;;;;;;5039657;28;20140;-55
2024/01/04 13:51:03;;;;;;;7.70;4.60;;;;;;;;;;5028163;28;20436;-51
2024/01/04 13:53:30;;;;;;;8.43;5.00;;;;;;;;;;5028530;28;20529;-50
2024/01/04 13:55:57;;;;;;;8.80;5.20;;;;;;;;;;5010869;28;20091;-54
2024/01/04 13:58:23;;;;;;;8.10;4.80;;;;;;;;;;5028485;28;20030;-53
2024/01/04 14:00:49;;;;;;;8.60;5.13;;;;;;;;;;5028247;28;20026;-47
2024/01/04 14:03:15;;;;;;;9.60;5.93;;;;;;;;;;5028522;28;20029;-51
2024/01/04 14:05:41;;;;;;;8.70;5.20;;;;;;;;;;5010377;28;20033;-54
2024/01/04 14:08:07;;;;;;;8.88;5.28;;;;;;;;;;5010202;28;20087;-54
2024/01/04 14:10:33;;;;;;;8.50;5.10;;;;;;;;;;5032597;28;20112;-52
2024/01/04 14:12:59;;;;;;;8.80;5.22;;;;;;;;;;5029862;28;20026;-53
2024/01/04 14:15:25;;;;;;;9.32;5.47;;;;;;;;;;5028484;28;20040;-50
2024/01/04 14:17:52;;;;;;;9.93;5.90;;;;;;;;;;5028254;28;20083;-52
2024/01/04 14:20:20;;;;;;;10.20;6.00;;;;;;;;;;5028187;28;20028;-50
2024/01/04 14:22:46;;;;;;;10.85;6.75;;;;;;;;;;5028043;28;20079;-50
2024/01/04 14:25:12;;;;;;;10.70;6.20;;;;;;;;;;5028166;28;20026;-47
2024/01/04 14:27:39;;;;;;;10.40;6.10;;;;;;;;;;5028320;28;20061;-51
2024/01/04 14:30:05;;;;;;;13.10;7.88;;;;;;;;;;5028171;28;20273;-51
2024/01/04 14:32:32;;;;;;;13.45;8.43;;;;;;;;;;5027674;28;20075;-54